FOLSOM LAKE (FOL)

Elevation: 466' · AMERICAN R basin · Operator: US Bureau of Reclamation

Provisional data, subject to change.
Query executed Tuesday at 17:02:28   clock

Select a sensor type for a plot of data.
Note: Reservoir Flows are daily averages.

Earlier

Date RES ELE    STORAGE    RES CHG    TOC STO    ABV TOC    OUTFLOW    INFLOW    EVAP    FNF    RIV REL    PPT INC    SPILL    DC PUMP    DIS PWR   
 FEET   AF   AF   AF   AF   CFS   CFS   CFS   CFS   CFS   INCHES   CFS   CFS   CFS  
12/29/2014 406.33 423048 2434 577000 -153952 983 2220 10 1619 0 0.00 0 56 927
12/30/2014 406.83 426629 3581 577000 -150371 756 2561 0 1433 0 0.00 0 59 697
12/31/2014 407.27 429802 3173 577000 r -147198 r 867 2467 0 1712 0 0.00 0 65 802
01/01/2015 407.46 431178 1376 577000 -- 966 1667 7 1212 0 0.00 0 61 905
01/02/2015 407.69 432844 1666 577000 -- 1019 1866 7 1354 0 0.00 0 68 951
01/03/2015 407.94 434654 1810 577000 -- 780 1708 15 1201 0 0.00 0 76 704
01/04/2015 408.11 435894 1240 577000 -141106 917 1552 10 1212 e 0 0.00 0 80 837
01/05/2015 408.31 437359 1465 577000 -139641 931 1670 0 1212 e 0 0.00 0 14 917
01/06/2015 408.50 438750 1391 577000 -138250 928 1639 10 1117 0 0.00 0 43 885
01/07/2015 408.76 440654 1904 577000 -- 580 1550 10 1194 0 0.00 0 63 517
01/08/2015 408.86 441386 732 577000 -135614 1054 1430 7 1385 0 0.00 0 64 990
01/09/2015 408.86 441386 0 577000 -- 1283 1290 7 1295 0 0.00 0 60 1223
01/10/2015 408.95 442045 659 577000 -- 1077 1411 2 1291 0 0.00 0 59 1018
01/11/2015 408.99 442338 293 577000 -134662 1010 1165 7 969 0 0.00 0 60 950
01/12/2015 409.12 443299 961 577000 -133701 838 1332 10 1034 e 0 0.00 0 67 771
01/13/2015 409.19 443818 519 577000 -133182 868 1140 10 1035 e 0 0.00 0 59 809
01/14/2015 409.26 444336 518 577000 -132664 939 1212 12 880 0 0.00 0 56 883
01/15/2015 409.37 445150 814 577000 -131850 804 1221 7 998 0 0.00 0 58 746
01/16/2015 409.41 445447 297 577000 -- 993 1153 10 1117 0 0.00 0 60 933
01/17/2015 409.53 446335 888 577000 -- 813 1261 0 1152 0 0.00 0 62 751
01/18/2015 409.54 446409 74 577000 -- 975 1012 0 1180 e 0 0.00 0 61 914
01/19/2015 409.52 446261 -148 577000 -130739 1068 1000 7 1050 0 0.00 0 58 1010
01/20/2015 409.55 446483 222 577000 -130517 1031 1143 0 1007 0 0.00 0 66 965
01/21/2015 409.67 447372 889 577000 -129628 947 1402 7 1180 e 0 0.00 0 63 884
01/22/2015 409.72 447742 370 577000 -129258 813 1005 5 904 0 0.00 0 61 752
01/23/2015 409.70 447594 -148 577000 -- 964 896 7 845 0 0.00 0 59 905
01/24/2015 409.76 448038 444 577000 -- 984 1215 7 840 e 0 0.00 0 57 927
01/25/2015 409.72 447742 -296 577000 -129258 1018 876 7 840 e 0 0.00 0 65 953
01/26/2015 409.74 447890 148 577000 -129110 809 894 10 -- 0 0.00 0 78 731
01/27/2015 -- -- -- -- -- -- -- -- -- -- -- -- -- --

Later | Latest

Warning! This data is preliminary and subject to revision.

Show FOL Map | Plot FOL Data | 1 Month FOL Data | Real-Time FOL Data | FOL Info